Time;durP1;ratioP1;P1;durP2;ratioP2;P2;SDS_P1;SDS_P2;PMS_P1;PMS_P2;Temp;Humidity;BMP_temperature;BMP_pressure;BME280_temperature;BME280_humidity;BME280_pressure;Samples;Min_cycle;Max_cycle;Signal;HPM_P1;HPM_P2
2021/06/16 00:00:36;;;;;;;1.53;0.90;;;;;;;16.60;72.60;101468.22;5016309;28;20973;-72
2021/06/16 00:03:02;;;;;;;0.93;0.80;;;;;;;16.58;72.30;101468.53;5016558;28;20448;-72
2021/06/16 00:05:31;;;;;;;2.33;0.80;;;;;;;16.58;71.86;101474.03;5016361;28;20483;-70
2021/06/16 00:07:59;;;;;;;0.60;0.50;;;;;;;16.52;71.01;101460.84;5016142;28;20820;-72
2021/06/16 00:10:27;;;;;;;0.83;0.70;;;;;;;16.44;69.50;101464.34;5016405;28;20452;-72
2021/06/16 00:12:54;;;;;;;1.23;0.90;;;;;;;16.40;69.41;101470.44;5016390;28;20444;-70
2021/06/16 00:15:23;;;;;;;1.80;0.90;;;;;;;16.36;70.45;101472.22;5015954;28;20980;-72
2021/06/16 00:17:50;;;;;;;0.90;0.77;;;;;;;16.36;70.55;101472.22;5016253;28;20444;-71
2021/06/16 00:20:16;;;;;;;3.10;0.73;;;;;;;16.38;70.49;101467.25;5015919;28;20964;-72
2021/06/16 00:22:44;;;;;;;1.23;0.83;;;;;;;16.42;70.14;101477.53;5016163;28;20438;-71
2021/06/16 00:25:12;;;;;;;0.80;0.60;;;;;;;16.44;69.91;101483.50;5015735;28;21019;-73
2021/06/16 00:27:38;;;;;;;1.77;0.90;;;;;;;16.42;70.74;101488.47;5016063;28;20439;-70
2021/06/16 00:30:06;;;;;;;0.83;0.70;;;;;;;16.39;70.63;101482.53;5016007;28;20451;-70
2021/06/16 00:32:33;;;;;;;0.80;0.73;;;;;;;16.39;70.42;101481.72;5016016;28;20432;-70
2021/06/16 00:34:59;;;;;;;0.90;0.70;;;;;;;16.38;71.21;101483.66;5015885;28;20464;-71
2021/06/16 00:37:26;;;;;;;1.07;0.63;;;;;;;16.38;71.26;101475.44;5015931;28;20440;-72
2021/06/16 00:39:54;;;;;;;0.70;0.70;;;;;;;16.38;72.27;101469.97;5015594;28;20820;-72
2021/06/16 00:42:22;;;;;;;2.87;1.30;;;;;;;16.37;71.52;101479.28;5015785;28;20455;-72
2021/06/16 00:44:49;;;;;;;0.80;0.70;;;;;;;16.34;71.70;101482.66;5014976;28;20507;-72
2021/06/16 00:47:15;;;;;;;0.73;0.73;;;;;;;16.30;72.11;101480.88;5015757;28;20447;-72
2021/06/16 00:49:42;;;;;;;0.77;0.70;;;;;;;16.26;71.97;101479.91;5015707;28;20531;-72
2021/06/16 00:52:08;;;;;;;0.57;0.50;;;;;;;16.21;72.01;101485.53;5015640;28;20448;-72
2021/06/16 00:54:35;;;;;;;0.83;0.70;;;;;;;16.15;72.26;101480.19;5015565;28;20460;-72
2021/06/16 00:57:03;;;;;;;0.90;0.60;;;;;;;16.07;72.16;101485.63;5015428;28;20460;-72
2021/06/16 00:59:36;;;;;;;1.10;0.80;;;;;;;16.10;72.28;101487.72;5015520;28;20799;-72
2021/06/16 01:02:05;;;;;;;0.80;0.70;;;;;;;16.06;73.09;101492.22;5015679;28;20428;-71
2021/06/16 01:04:32;;;;;;;4.77;1.20;;;;;;;15.98;72.90;101482.03;5015283;28;20464;-71
2021/06/16 01:07:02;;;;;;;0.50;0.50;;;;;;;15.96;73.62;101476.91;5015349;28;20459;-71
2021/06/16 01:09:33;;;;;;;0.97;0.50;;;;;;;15.94;73.76;101481.06;5015358;28;20444;-71
2021/06/16 01:12:05;;;;;;;1.20;0.80;;;;;;;15.88;71.12;101485.88;5015315;28;20428;-71
2021/06/16 01:14:36;;;;;;;1.00;0.60;;;;;;;15.75;70.55;101482.09;5014639;28;20479;-69
2021/06/16 01:17:06;;;;;;;1.43;0.90;;;;;;;15.68;69.19;101481.75;5016463;28;20432;-69
2021/06/16 01:20:01;;;;;;;1.00;0.87;;;;;;;15.59;68.58;101484.41;5019956;28;20926;-69
2021/06/16 01:22:36;;;;;;;1.20;1.00;;;;;;;15.55;71.05;101485.34;5015087;28;20433;-71
2021/06/16 01:25:09;;;;;;;1.77;0.90;;;;;;;15.50;72.51;101488.22;5014914;28;20487;-71
2021/06/16 01:27:38;;;;;;;0.97;0.90;;;;;;;15.42;73.51;101480.78;5015002;28;20451;-71
2021/06/16 01:30:06;;;;;;;0.70;0.60;;;;;;;15.39;73.79;101488.44;5014960;28;20451;-69
2021/06/16 01:32:33;;;;;;;1.33;0.83;;;;;;;15.38;73.03;101480.59;5014852;28;20870;-71
2021/06/16 01:35:01;;;;;;;0.73;0.50;;;;;;;15.37;73.43;101484.44;5014732;28;20487;-71
2021/06/16 01:37:28;;;;;;;0.77;0.60;;;;;;;15.34;73.49;101485.84;5014765;28;20455;-70
2021/06/16 01:39:56;;;;;;;0.90;0.70;;;;;;;15.32;72.35;101482.66;5014718;28;20455;-70
2021/06/16 01:42:26;;;;;;;2.83;0.73;;;;;;;15.34;72.88;101485.06;5014680;28;20448;-71
2021/06/16 01:44:54;;;;;;;1.50;0.70;;;;;;;15.26;73.12;101488.53;5014546;28;20488;-71
2021/06/16 01:47:23;;;;;;;1.00;0.90;;;;;;;15.22;73.55;101482.88;5014650;28;20447;-71
2021/06/16 01:49:53;;;;;;;1.00;0.67;;;;;;;15.22;73.68;101482.88;5014563;28;20447;-71
2021/06/16 01:52:21;;;;;;;0.90;0.70;;;;;;;15.21;73.78;101486.72;5014559;28;20428;-71
2021/06/16 01:54:48;;;;;;;0.70;0.70;;;;;;;15.18;72.78;101481.88;5014317;28;20468;-71
2021/06/16 01:57:16;;;;;;;0.87;0.60;;;;;;;15.10;72.68;101477.19;5013148;28;20455;-71
2021/06/16 01:59:44;;;;;;;2.93;0.70;;;;;;;15.03;73.58;101488.50;5014447;28;20787;-71
2021/06/16 02:02:12;;;;;;;0.70;0.53;;;;;;;15.05;74.48;101480.00;5014045;28;20444;-71
2021/06/16 02:04:39;;;;;;;0.70;0.60;;;;;;;15.02;74.35;101477.91;5014185;28;20459;-71
2021/06/16 02:07:09;;;;;;;0.70;0.67;;;;;;;14.95;74.57;101474.78;5014283;28;20455;-71
2021/06/16 02:09:39;;;;;;;3.87;0.70;;;;;;;14.89;74.63;101479.56;5014006;28;20936;-72
2021/06/16 02:12:10;;;;;;;0.93;0.60;;;;;;;14.86;75.54;101480.19;5014147;28;20452;-70
2021/06/16 02:14:37;;;;;;;0.73;0.63;;;;;;;14.80;73.45;101481.41;5014373;28;20467;-70
2021/06/16 02:17:09;;;;;;;0.50;0.50;;;;;;;14.80;70.49;101471.31;5014097;28;20442;-70
2021/06/16 02:19:40;;;;;;;0.93;0.70;;;;;;;14.70;69.51;101471.56;5014155;28;20439;-73
2021/06/16 02:22:09;;;;;;;3.60;0.83;;;;;;;14.65;69.35;101474.38;5014017;28;20436;-72
2021/06/16 02:24:36;;;;;;;0.90;0.40;;;;;;;14.57;69.72;101480.56;5014137;28;20471;-71
2021/06/16 02:27:03;;;;;;;0.70;0.63;;;;;;;14.53;71.87;101476.84;5013886;28;20484;-71
2021/06/16 02:29:31;;;;;;;1.67;0.70;;;;;;;14.49;74.36;101467.66;5013593;28;20826;-70
2021/06/16 02:31:58;;;;;;;1.03;0.60;;;;;;;14.44;75.23;101476.72;5013846;28;20443;-72
2021/06/16 02:34:25;;;;;;;0.90;0.73;;;;;;;14.31;75.76;101469.38;5013650;28;20464;-72
2021/06/16 02:36:58;;;;;;;0.97;0.60;;;;;;;14.30;76.20;101467.75;5013811;28;20455;-71
2021/06/16 02:39:29;;;;;;;1.27;0.77;;;;;;;14.37;76.72;101466.22;5013783;28;20431;-72
2021/06/16 02:41:57;;;;;;;1.10;0.70;;;;;;;14.39;76.95;101469.47;5013769;28;20433;-72
2021/06/16 02:44:24;;;;;;;0.70;0.70;;;;;;;14.38;76.84;101472.47;5013641;28;20451;-72
2021/06/16 02:46:55;;;;;;;0.60;0.50;;;;;;;14.30;77.40;101467.75;5013666;28;20840;-72
2021/06/16 02:49:28;;;;;;;0.73;0.50;;;;;;;14.34;77.29;101474.19;5013378;28;20424;-72
2021/06/16 02:51:58;;;;;;;1.20;0.80;;;;;;;14.33;77.38;101476.09;5013638;28;20424;-72
2021/06/16 02:54:26;;;;;;;0.90;0.70;;;;;;;14.33;77.87;101476.09;5013472;28;20996;-72
2021/06/16 02:56:53;;;;;;;0.50;0.40;;;;;;;14.33;78.20;101467.94;5013431;28;20471;-71
2021/06/16 02:59:20;;;;;;;1.00;0.73;;;;;;;14.32;78.61;101470.97;5013554;28;20451;-72
2021/06/16 03:01:48;;;;;;;0.87;0.60;;;;;;;14.27;77.04;101477.34;5013528;28;20886;-72
2021/06/16 03:04:16;;;;;;;0.80;0.60;;;;;;;14.23;74.64;101476.31;5013647;28;20443;-72
2021/06/16 03:06:43;;;;;;;2.80;0.73;;;;;;;14.11;74.55;101479.53;5013211;28;20484;-72
2021/06/16 03:09:13;;;;;;;6.30;0.90;;;;;;;13.98;74.77;101483.06;5017770;28;20440;-72
2021/06/16 03:11:40;;;;;;;0.70;0.50;;;;;;;13.93;76.72;101480.44;5017543;28;20439;-72
2021/06/16 03:14:07;;;;;;;0.90;0.73;;;;;;;13.89;78.40;101482.97;5017024;28;20937;-72
2021/06/16 03:16:36;;;;;;;1.07;0.60;;;;;;;13.95;79.17;101477.44;5017709;28;20440;-72
2021/06/16 03:19:04;;;;;;;2.33;1.13;;;;;;;13.87;80.25;101473.50;5024151;28;20800;-72
2021/06/16 03:21:31;;;;;;;1.20;0.70;;;;;;;13.88;81.07;101477.81;5017650;28;20440;-72
2021/06/16 03:23:59;;;;;;;0.97;0.73;;;;;;;13.95;81.15;101474.72;5017307;28;20865;-72
2021/06/16 03:26:27;;;;;;;0.80;0.70;;;;;;;14.00;81.42;101467.25;5017105;28;20494;-72
2021/06/16 03:28:55;;;;;;;0.80;0.80;;;;;;;13.97;81.95;101475.22;5017213;28;20440;-72
2021/06/16 03:31:22;;;;;;;1.07;0.77;;;;;;;14.04;82.04;101473.72;5017165;28;20450;-72
2021/06/16 03:33:49;;;;;;;0.70;0.70;;;;;;;14.01;82.61;101466.13;5017111;28;20501;-72
2021/06/16 03:36:17;;;;;;;0.50;0.47;;;;;;;14.04;82.62;101470.19;5017243;28;20456;-70
2021/06/16 03:38:44;;;;;;;1.13;0.70;;;;;;;14.16;82.79;101466.94;5017043;28;20467;-72
2021/06/16 03:41:12;;;;;;;1.17;0.93;;;;;;;14.22;82.42;101472.00;5017175;28;20439;-72
2021/06/16 03:43:42;;;;;;;0.87;0.70;;;;;;;14.22;78.82;101463.81;5016907;28;20444;-72
2021/06/16 03:46:10;;;;;;;0.70;0.67;;;;;;;14.15;77.77;101477.03;5016683;28;20484;-72
2021/06/16 03:48:39;;;;;;;1.53;0.90;;;;;;;14.20;77.29;101470.66;5016721;28;20452;-72
2021/06/16 03:51:06;;;;;;;0.90;0.70;;;;;;;14.16;76.33;101472.38;5016557;28;20821;-72
2021/06/16 03:53:34;;;;;;;1.27;1.17;;;;;;;14.16;76.13;101467.72;5016521;28;20959;-72
2021/06/16 03:56:01;;;;;;;2.40;0.70;;;;;;;14.18;77.00;101473.69;5016673;28;20460;-72
2021/06/16 03:58:28;;;;;;;1.77;0.87;;;;;;;14.24;78.31;101461.59;5016320;28;20456;-72
2021/06/16 04:00:56;;;;;;;0.80;0.73;;;;;;;14.45;78.50;101466.63;5016611;28;20459;-72
2021/06/16 04:03:23;;;;;;;0.70;0.60;;;;;;;14.55;78.35;101467.22;5016577;28;20444;-71
2021/06/16 04:05:49;;;;;;;0.50;0.50;;;;;;;14.62;78.55;101469.53;5016424;28;20510;-72
2021/06/16 04:08:16;;;;;;;0.70;0.67;;;;;;;14.72;79.48;101463.06;5016466;28;20452;-72
2021/06/16 04:10:45;;;;;;;0.70;0.70;;;;;;;14.87;78.29;101455.34;5016684;28;20471;-72
2021/06/16 04:13:12;;;;;;;0.90;0.60;;;;;;;14.95;77.68;101470.16;5016336;28;20450;-72
2021/06/16 04:15:38;;;;;;;1.23;1.03;;;;;;;15.05;77.99;101471.81;5016548;28;20467;-72
2021/06/16 04:18:07;;;;;;;6.77;0.80;;;;;;;15.13;76.81;101465.63;5015689;28;20467;-72
2021/06/16 04:20:34;;;;;;;0.67;0.67;;;;;;;15.18;76.31;101465.50;5015532;28;20448;-72
2021/06/16 04:23:01;;;;;;;2.13;0.70;;;;;;;15.27;75.27;101474.59;5016163;28;20439;-72
2021/06/16 04:25:28;;;;;;;1.33;1.13;;;;;;;15.29;75.38;101469.59;5015741;28;21031;-72
2021/06/16 04:27:55;;;;;;;0.97;0.90;;;;;;;15.35;74.58;101471.09;5016156;28;20440;-73
2021/06/16 04:30:24;;;;;;;0.93;0.83;;;;;;;15.36;74.72;101467.25;5016223;28;20927;-69
2021/06/16 04:32:51;;;;;;;0.80;0.63;;;;;;;15.42;74.24;101469.84;5016154;28;20933;-70
2021/06/16 04:35:19;;;;;;;1.37;0.80;;;;;;;15.47;73.95;101469.72;5015997;28;20472;-71
2021/06/16 04:37:46;;;;;;;1.90;1.10;;;;;;;15.51;73.18;101474.25;5016190;28;20479;-70
2021/06/16 04:40:13;;;;;;;1.00;0.77;;;;;;;15.58;72.89;101476.50;5015588;28;20440;-72
2021/06/16 04:42:40;;;;;;;2.13;0.80;;;;;;;15.62;72.73;101477.50;5015835;28;20432;-71
2021/06/16 04:45:07;;;;;;;0.80;0.70;;;;;;;15.66;72.64;101481.25;5015769;28;20464;-72
2021/06/16 04:47:34;;;;;;;0.87;0.67;;;;;;;15.63;71.55;101490.06;5015713;28;20480;-72
2021/06/16 04:50:01;;;;;;;0.90;0.60;;;;;;;15.62;70.38;101481.03;5015775;28;20486;-72
2021/06/16 04:52:29;;;;;;;1.87;0.80;;;;;;;15.59;70.64;101480.88;5015818;28;20463;-71
2021/06/16 04:54:55;;;;;;;0.77;0.77;;;;;;;15.63;70.72;101481.88;5015681;28;20530;-72
2021/06/16 04:57:22;;;;;;;0.70;0.57;;;;;;;15.65;71.04;101479.66;5015295;28;20455;-72
2021/06/16 04:59:48;;;;;;;1.70;0.70;;;;;;;15.71;71.99;101485.78;5015558;28;20451;-72
2021/06/16 05:02:15;;;;;;;0.90;0.60;;;;;;;15.79;73.12;101487.75;5015701;28;20440;-72
2021/06/16 05:04:42;;;;;;;0.50;0.40;;;;;;;15.84;72.83;101476.69;5015353;28;20463;-72
2021/06/16 05:07:08;;;;;;;0.87;0.87;;;;;;;15.91;73.30;101476.25;5015269;28;20484;-71
2021/06/16 05:09:36;;;;;;;2.10;1.13;;;;;;;15.99;73.61;101475.47;5015309;28;20454;-72
2021/06/16 05:12:03;;;;;;;8.00;1.17;;;;;;;16.04;73.29;101470.66;5015313;28;20526;-71
2021/06/16 05:14:29;;;;;;;1.90;0.87;;;;;;;16.11;72.90;101476.50;5015192;28;20471;-71
2021/06/16 05:16:56;;;;;;;1.70;1.00;;;;;;;16.21;73.79;101480.06;5015179;28;20436;-72
2021/06/16 05:19:23;;;;;;;1.73;0.90;;;;;;;16.29;73.61;101477.34;5021869;28;20444;-72
2021/06/16 05:21:50;;;;;;;1.03;0.70;;;;;;;16.35;72.54;101481.53;5015128;28;20436;-72
2021/06/16 05:24:18;;;;;;;0.93;0.67;;;;;;;16.43;71.40;101473.69;5015001;28;20436;-72
2021/06/16 05:26:46;;;;;;;0.70;0.60;;;;;;;16.55;70.32;101473.84;5014813;28;20539;-72
2021/06/16 05:29:12;;;;;;;0.90;0.80;;;;;;;16.65;71.23;101468.09;5014930;28;20440;-71
2021/06/16 05:31:39;;;;;;;0.60;0.57;;;;;;;16.72;69.67;101473.06;5014445;28;20444;-70
2021/06/16 05:34:06;;;;;;;1.23;1.00;;;;;;;16.79;71.60;101482.44;5014855;28;20444;-71
2021/06/16 05:36:33;;;;;;;6.53;0.77;;;;;;;16.80;72.85;101467.63;5014835;28;20436;-71
2021/06/16 05:39:00;;;;;;;0.50;0.43;;;;;;;16.80;75.40;101473.09;5014827;28;20448;-71
2021/06/16 05:41:26;;;;;;;4.30;0.80;;;;;;;16.84;79.84;101474.06;5014715;28;20499;-71
2021/06/16 05:43:54;;;;;;;2.20;1.10;;;;;;;16.78;81.79;101471.84;5014762;28;20443;-71
2021/06/16 05:46:20;;;;;;;1.90;0.77;;;;;;;16.74;83.16;101465.38;5014163;28;21011;-71
2021/06/16 05:48:47;;;;;;;0.93;0.83;;;;;;;16.63;82.46;101468.38;5014581;28;20450;-71
2021/06/16 05:51:13;;;;;;;0.77;0.60;;;;;;;16.63;83.78;101467.59;5014496;28;20444;-70
2021/06/16 05:53:40;;;;;;;6.20;0.80;;;;;;;16.58;83.48;101465.81;5014515;28;20452;-71
2021/06/16 05:56:06;;;;;;;0.90;0.77;;;;;;;16.57;83.08;101466.94;5014378;28;20468;-73
2021/06/16 05:58:33;;;;;;;4.50;0.63;;;;;;;16.53;82.41;101459.69;5014303;28;20459;-72
2021/06/16 06:01:00;;;;;;;0.90;0.67;;;;;;;16.60;77.26;101462.75;5014391;28;20459;-70
2021/06/16 06:03:27;;;;;;;0.97;0.60;;;;;;;16.72;77.37;101462.97;5014649;28;20447;-71
2021/06/16 06:05:53;;;;;;;1.23;0.80;;;;;;;16.79;76.64;101467.97;5014290;28;20468;-75
2021/06/16 06:08:20;;;;;;;1.83;0.67;;;;;;;16.86;76.79;101468.28;5014165;28;20495;-76
2021/06/16 06:10:46;;;;;;;0.80;0.70;;;;;;;16.92;76.50;101460.72;5014097;28;20452;-76
2021/06/16 06:13:12;;;;;;;0.73;0.47;;;;;;;16.93;75.33;101467.81;5014198;28;20447;-75
2021/06/16 06:15:39;;;;;;;0.50;0.43;;;;;;;16.98;75.48;101471.19;5014282;28;20468;-77
2021/06/16 06:18:07;;;;;;;0.73;0.57;;;;;;;17.07;74.67;101462.97;5014187;28;20448;-76
2021/06/16 06:20:34;;;;;;;1.00;0.70;;;;;;;17.18;71.92;101469.72;5014086;28;20447;-76
2021/06/16 06:23:00;;;;;;;1.07;0.70;;;;;;;17.32;74.18;101464.06;5014011;28;20432;-76
2021/06/16 06:25:27;;;;;;;0.60;0.50;;;;;;;17.37;75.24;101459.22;5013982;28;20459;-75
2021/06/16 06:27:53;;;;;;;0.57;0.50;;;;;;;17.45;72.57;101459.53;5013878;28;20479;-75
2021/06/16 06:30:20;;;;;;;1.60;0.63;;;;;;;17.57;72.31;101465.13;5013875;28;20448;-75
2021/06/16 06:32:46;;;;;;;1.70;0.50;;;;;;;17.67;73.07;101466.72;5013591;28;20431;-75
2021/06/16 06:35:14;;;;;;;0.70;0.47;;;;;;;17.72;73.37;101470.09;5013784;28;20468;-75
2021/06/16 06:37:40;;;;;;;0.50;0.50;;;;;;;17.75;73.56;101472.22;5013758;28;20444;-75
2021/06/16 06:40:08;;;;;;;0.70;0.60;;;;;;;17.83;72.49;101471.34;5013787;28;20440;-76
2021/06/16 06:42:34;;;;;;;1.17;0.90;;;;;;;17.90;71.01;101473.59;5013206;28;20451;-75
2021/06/16 06:45:00;;;;;;;0.90;0.70;;;;;;;18.00;65.21;101464.19;5013672;28;20495;-75
2021/06/16 06:47:27;;;;;;;1.10;0.73;;;;;;;18.14;65.48;101467.50;5013623;28;20491;-75
2021/06/16 06:49:54;;;;;;;1.53;0.50;;;;;;;18.25;65.81;101468.75;5013683;28;20441;-75
2021/06/16 06:52:22;;;;;;;1.23;0.90;;;;;;;18.34;65.59;101465.97;5013323;28;20452;-73
2021/06/16 06:54:48;;;;;;;0.50;0.40;;;;;;;18.49;65.81;101461.81;5013541;28;20468;-73
2021/06/16 06:57:15;;;;;;;0.93;0.60;;;;;;;18.57;66.07;101467.25;5013342;28;20459;-71
2021/06/16 06:59:42;;;;;;;2.17;0.63;;;;;;;18.67;67.25;101466.06;5013561;28;20440;-76
2021/06/16 07:02:08;;;;;;;5.20;0.90;;;;;;;18.74;67.80;101468.31;5013606;28;20466;-75
2021/06/16 07:04:35;;;;;;;0.80;0.70;;;;;;;18.79;66.52;101465.34;5013462;28;20460;-74
2021/06/16 07:07:02;;;;;;;0.80;0.60;;;;;;;18.86;65.36;101471.94;5013100;28;20494;-74
2021/06/16 07:09:30;;;;;;;0.60;0.50;;;;;;;18.97;64.00;101463.28;5013013;28;20448;-75
2021/06/16 07:11:56;;;;;;;1.07;0.73;;;;;;;19.01;64.36;101458.72;5013456;28;20530;-75
2021/06/16 07:14:23;;;;;;;0.90;0.73;;;;;;;19.05;64.93;101459.66;5013308;28;20455;-75
2021/06/16 07:16:49;;;;;;;3.40;0.80;;;;;;;19.10;61.83;101454.75;5013017;28;20440;-74
2021/06/16 07:19:16;;;;;;;0.70;0.60;;;;;;;19.19;62.19;101457.41;5017051;28;20440;-75
2021/06/16 07:21:42;;;;;;;0.60;0.53;;;;;;;19.29;61.94;101456.97;5016910;28;20460;-75
2021/06/16 07:24:10;;;;;;;0.73;0.53;;;;;;;19.39;61.09;101451.06;5012980;28;20443;-74
2021/06/16 07:26:38;;;;;;;2.70;0.63;;;;;;;19.53;60.04;101452.72;5013180;28;20462;-72
2021/06/16 07:29:05;;;;;;;0.50;0.40;;;;;;;19.64;60.00;101456.63;5013208;28;20451;-74
2021/06/16 07:31:31;;;;;;;0.50;0.40;;;;;;;19.72;58.60;101458.50;5013210;28;20526;-74
2021/06/16 07:34:00;;;;;;;1.80;0.77;;;;;;;19.83;57.68;101456.09;5013255;28;20527;-73
2021/06/16 07:36:27;;;;;;;0.77;0.60;;;;;;;19.96;58.89;101449.44;5013155;28;20551;-74
2021/06/16 07:38:53;;;;;;;2.30;0.80;;;;;;;20.03;59.98;101448.88;5013265;28;20451;-74
2021/06/16 07:41:20;;;;;;;1.07;0.93;;;;;;;20.14;61.28;101452.75;5012829;28;20535;-74
2021/06/16 07:43:48;;;;;;;1.90;0.70;;;;;;;20.19;62.76;101448.97;5013172;28;20547;-74
2021/06/16 07:46:14;;;;;;;1.20;0.60;;;;;;;20.22;63.88;101453.81;5013086;28;20459;-75
2021/06/16 07:48:41;;;;;;;1.87;0.73;;;;;;;20.19;64.07;101449.81;5012357;28;20488;-71
2021/06/16 07:51:07;;;;;;;1.10;0.83;;;;;;;20.17;65.24;101457.59;5012770;28;20817;-73
2021/06/16 07:53:34;;;;;;;1.30;0.60;;;;;;;20.19;63.00;101449.81;5014164;28;20448;-74
2021/06/16 07:56:00;;;;;;;1.20;0.73;;;;;;;20.28;62.28;101447.72;5017972;28;20826;-73
2021/06/16 07:58:27;;;;;;;1.23;0.90;;;;;;;20.32;63.89;101448.66;5016390;28;20451;-74
2021/06/16 08:00:55;;;;;;;1.33;1.03;;;;;;;20.32;64.22;101445.91;5016758;28;20447;-76
2021/06/16 08:03:21;;;;;;;6.47;0.80;;;;;;;20.33;65.71;101441.19;5016313;28;20929;-74
2021/06/16 08:05:50;;;;;;;0.63;0.60;;;;;;;20.32;66.73;101442.31;5016481;28;20827;-74
2021/06/16 08:08:16;;;;;;;1.07;0.70;;;;;;;20.40;63.98;101444.94;5016109;28;20857;-74
2021/06/16 08:10:43;;;;;;;1.27;0.83;;;;;;;20.48;63.46;101445.19;5016474;28;20456;-71
2021/06/16 08:13:09;;;;;;;1.10;0.80;;;;;;;20.59;62.64;101446.34;5016429;28;20447;-72
2021/06/16 08:15:36;;;;;;;0.70;0.70;;;;;;;20.66;61.50;101446.53;5015878;28;20841;-73
2021/06/16 08:18:04;;;;;;;2.60;1.30;;;;;;;20.70;63.44;101441.94;5016295;28;20452;-73
2021/06/16 08:20:31;;;;;;;1.63;0.80;;;;;;;20.78;61.76;101435.47;5016315;28;20447;-73
2021/06/16 08:22:58;;;;;;;1.17;0.83;;;;;;;20.92;61.14;101435.88;5016250;28;20451;-73
2021/06/16 08:25:26;;;;;;;2.63;1.00;;;;;;;21.07;57.77;101428.84;5016078;28;20460;-74
2021/06/16 08:27:53;;;;;;;1.07;0.70;;;;;;;21.21;58.56;101439.44;5016058;28;20490;-74
2021/06/16 08:30:20;;;;;;;3.33;1.00;;;;;;;21.30;60.35;101437.31;5015774;28;20972;-73
2021/06/16 08:32:47;;;;;;;1.20;0.87;;;;;;;21.35;61.17;101431.56;5016056;28;20448;-74
2021/06/16 08:35:15;;;;;;;1.07;0.80;;;;;;;21.45;59.81;101424.75;5016096;28;20464;-74
2021/06/16 08:37:42;;;;;;;1.43;0.97;;;;;;;21.47;56.29;101429.88;5015960;28;20455;-74
2021/06/16 08:40:09;;;;;;;0.70;0.70;;;;;;;21.61;54.38;101422.00;5015940;28;20450;-74
2021/06/16 08:42:36;;;;;;;2.67;0.80;;;;;;;21.66;55.90;101421.72;5015578;28;20946;-74
2021/06/16 08:45:04;;;;;;;1.73;1.13;;;;;;;21.72;58.03;101422.25;5015822;28;20472;-74
2021/06/16 08:47:31;;;;;;;1.03;0.97;;;;;;;21.79;59.60;101423.25;5015392;28;20483;-74
2021/06/16 08:49:59;;;;;;;2.70;1.07;;;;;;;22.05;56.23;101422.69;5015815;28;20451;-74
2021/06/16 08:52:26;;;;;;;1.83;1.00;;;;;;;22.22;53.13;101427.00;5015551;28;20992;-74
2021/06/16 08:54:53;;;;;;;0.97;0.70;;;;;;;22.28;52.74;101428.34;5015568;28;20470;-74
2021/06/16 08:57:19;;;;;;;1.20;1.03;;;;;;;22.33;53.96;101428.06;5015361;28;20514;-74
2021/06/16 08:59:45;;;;;;;1.33;0.80;;;;;;;22.42;53.37;101428.66;5015534;28;20443;-74
2021/06/16 09:02:12;;;;;;;0.90;0.90;;;;;;;22.47;54.21;101433.09;5015437;28;20447;-74
2021/06/16 09:04:43;;;;;;;1.00;0.80;;;;;;;22.55;54.52;101428.53;5014851;28;20460;-74
2021/06/16 09:07:12;;;;;;;0.80;0.80;;;;;;;22.59;55.45;101426.66;5015330;28;20479;-74
2021/06/16 09:09:40;;;;;;;1.30;0.83;;;;;;;22.67;54.67;101426.44;5015429;28;20893;-73
2021/06/16 09:12:07;;;;;;;0.77;0.77;;;;;;;22.72;55.18;101421.78;5015328;28;20440;-74
2021/06/16 09:14:34;;;;;;;1.47;1.00;;;;;;;22.77;55.45;101422.28;5015135;28;20555;-74
2021/06/16 09:17:04;;;;;;;1.10;1.00;;;;;;;22.85;54.98;101424.03;5015191;28;20527;-74
2021/06/16 09:19:33;;;;;;;1.07;0.80;;;;;;;22.87;55.44;101424.47;5015192;28;20451;-74
2021/06/16 09:22:01;;;;;;;2.00;0.80;;;;;;;22.90;52.94;101423.78;5021983;28;20456;-74
2021/06/16 09:24:42;;;;;;;1.00;0.80;;;;;;;22.92;54.76;101421.44;5015074;28;20555;-74
2021/06/16 09:27:08;;;;;;;1.13;1.03;;;;;;;23.07;53.42;101427.25;5015292;28;20424;-74
2021/06/16 09:29:35;;;;;;;1.43;0.93;;;;;;;23.07;51.96;101422.53;5015019;28;20459;-74
2021/06/16 09:32:03;;;;;;;5.97;1.57;;;;;;;23.05;51.54;101422.06;5014768;28;20466;-74
2021/06/16 09:34:31;;;;;;;1.37;1.27;;;;;;;23.14;51.99;101417.13;5014854;28;20484;-74
2021/06/16 09:36:59;;;;;;;2.50;1.47;;;;;;;23.22;52.24;101423.59;5014859;28;20933;-74
2021/06/16 09:39:27;;;;;;;2.47;1.13;;;;;;;23.22;51.61;101418.06;5014448;28;20933;-74
2021/06/16 09:41:57;;;;;;;3.87;0.90;;;;;;;23.35;52.49;101418.69;5014742;28;20798;-74
2021/06/16 09:44:43;;;;;;;1.20;1.10;;;;;;;23.42;51.82;101419.63;5014642;28;20444;-74
2021/06/16 09:47:11;;;;;;;0.90;0.90;;;;;;;23.48;53.04;101419.31;5014718;28;20432;-74
2021/06/16 09:49:52;;;;;;;1.47;1.10;;;;;;;23.54;50.68;101420.59;5014677;28;20440;-74
2021/06/16 09:52:38;;;;;;;1.00;0.90;;;;;;;23.63;49.57;101410.06;5014581;28;20440;-74
2021/06/16 09:55:07;;;;;;;2.57;1.40;;;;;;;23.70;50.57;101407.47;5014211;28;20984;-74
2021/06/16 09:57:35;;;;;;;5.87;1.13;;;;;;;23.87;50.28;101401.41;5014291;28;20452;-74
2021/06/16 10:00:08;;;;;;;3.40;1.60;;;;;;;23.94;49.35;101408.22;5014731;28;20459;-74
2021/06/16 10:02:35;;;;;;;1.43;1.10;;;;;;;24.09;47.24;101397.00;5013291;28;20425;-74
2021/06/16 10:05:04;;;;;;;4.50;1.23;;;;;;;24.25;46.80;101396.81;5014209;28;20467;-74
2021/06/16 10:07:31;;;;;;;2.60;1.50;;;;;;;24.31;46.96;101389.00;5014235;28;20444;-74
2021/06/16 10:10:00;;;;;;;1.30;1.20;;;;;;;24.23;46.83;101382.56;5013921;28;20482;-74
2021/06/16 10:12:29;;;;;;;1.27;0.90;;;;;;;24.24;47.06;101386.13;5014269;28;20448;-73
2021/06/16 10:14:58;;;;;;;1.90;1.30;;;;;;;24.34;48.03;101382.69;5013743;28;20988;-73
2021/06/16 10:17:25;;;;;;;2.70;1.37;;;;;;;24.45;47.88;101377.31;5013329;28;20444;-74
2021/06/16 10:19:53;;;;;;;1.10;0.93;;;;;;;24.54;43.23;101375.84;5014086;28;20447;-73
2021/06/16 10:22:20;;;;;;;0.83;0.70;;;;;;;24.60;43.21;101365.22;5014075;28;20455;-74
2021/06/16 10:24:47;;;;;;;1.53;1.20;;;;;;;24.64;44.66;101366.06;5013640;28;20483;-74
2021/06/16 10:27:18;;;;;;;1.10;0.90;;;;;;;24.72;42.47;101359.44;5014003;28;20448;-73
2021/06/16 10:29:48;;;;;;;3.00;0.90;;;;;;;24.80;44.30;101352.81;5014015;28;20471;-74
2021/06/16 10:32:16;;;;;;;1.53;0.83;;;;;;;24.94;46.94;101362.44;5013788;28;20440;-74
2021/06/16 10:35:04;;;;;;;1.07;0.97;;;;;;;24.97;45.56;101365.25;5013727;28;20496;-74
2021/06/16 10:37:36;;;;;;;2.30;1.53;;;;;;;25.09;45.50;101350.34;5013691;28;20455;-74
2021/06/16 10:40:46;;;;;;;1.43;1.30;;;;;;;25.16;44.43;101361.50;5013843;28;20417;-74
2021/06/16 10:43:30;;;;;;;1.13;1.03;;;;;;;25.29;45.05;101351.72;5013673;28;20455;-74
2021/06/16 10:46:03;;;;;;;1.37;1.23;;;;;;;25.50;43.89;101347.50;5013719;28;20463;-74
2021/06/16 10:49:01;;;;;;;1.50;1.33;;;;;;;25.71;45.24;101349.66;5013889;28;20555;-74
2021/06/16 10:51:38;;;;;;;1.07;0.97;;;;;;;25.80;41.01;101348.16;4953263;29;20517;-73
2021/06/16 10:54:17;;;;;;;1.30;1.20;;;;;;;25.85;42.93;101347.81;5003763;28;20953;-73
2021/06/16 10:56:44;;;;;;;1.63;1.33;;;;;;;25.86;41.83;101343.06;5013724;28;20487;-74
2021/06/16 10:59:11;;;;;;;1.57;1.10;;;;;;;25.95;43.43;101351.06;5013633;28;20444;-74
2021/06/16 11:01:49;;;;;;;1.77;1.10;;;;;;;26.08;43.89;101350.34;5013680;28;20444;-74
2021/06/16 11:04:30;;;;;;;3.87;1.20;;;;;;;26.35;42.48;101342.53;5013426;28;20455;-74
2021/06/16 11:06:56;;;;;;;1.27;1.10;;;;;;;26.53;42.85;101347.38;5013474;28;20448;-73
2021/06/16 11:09:50;;;;;;;2.97;1.10;;;;;;;26.73;42.51;101340.28;5013378;28;20527;-71
2021/06/16 11:12:16;;;;;;;1.13;1.03;;;;;;;26.91;40.60;101335.53;5013546;28;20440;-73
2021/06/16 11:14:50;;;;;;;0.97;0.80;;;;;;;27.10;41.66;101328.06;5013326;28;20460;-74
2021/06/16 11:17:42;;;;;;;1.80;1.00;;;;;;;27.60;42.34;101337.19;5013326;28;20433;-74
2021/06/16 11:20:12;;;;;;;0.80;0.80;;;;;;;28.19;38.67;101338.66;5013543;28;20492;-71
2021/06/16 11:22:41;;;;;;;2.30;1.10;;;;;;;29.12;37.75;101336.97;5020091;28;20440;-74
2021/06/16 11:25:24;;;;;;;0.93;0.90;;;;;;;30.09;37.75;101341.66;5013200;28;20464;-72
2021/06/16 11:28:16;;;;;;;1.63;1.03;;;;;;;31.11;34.68;101335.13;5013427;28;20429;-74
2021/06/16 11:31:02;;;;;;;1.70;1.20;;;;;;;31.97;34.28;101337.25;5017314;28;20490;-72